Time;durP1;ratioP1;P1;durP2;ratioP2;P2;SDS_P1;SDS_P2;PMS_P1;PMS_P2;Temp;Humidity;BMP_temperature;BMP_pressure;BME280_temperature;BME280_humidity;BME280_pressure;Samples;Min_cycle;Max_cycle;Signal;HPM_P1;HPM_P2
2020/12/24 00:00:46;;;;;;;19.67;4.05;;;9.30;99.90;;;;;;6162052;23;20088;-94
2020/12/24 00:03:14;;;;;;;18.63;3.05;;;9.30;99.90;;;;;;6162117;23;20021;-94
2020/12/24 00:05:44;;;;;;;26.77;4.32;;;9.30;99.90;;;;;;6161760;23;20024;-94
2020/12/24 00:08:13;;;;;;;18.90;3.10;;;9.30;99.90;;;;;;6162289;23;20329;-94
2020/12/24 00:10:41;;;;;;;22.33;3.45;;;9.30;99.90;;;;;;6161887;23;20017;-95
2020/12/24 00:13:09;;;;;;;22.65;3.53;;;9.30;99.90;;;;;;6162667;23;20044;-94
2020/12/24 00:15:38;;;;;;;19.33;3.20;;;9.20;99.90;;;;;;6162782;23;20020;-95
2020/12/24 00:18:17;;;;;;;20.35;3.45;;;9.20;99.90;;;;;;6164091;23;20024;-95
2020/12/24 00:20:46;;;;;;;;;;;9.20;99.90;;;;;;6162349;23;20044;-96
2020/12/24 00:23:15;;;;;;;16.35;2.47;;;9.20;99.90;;;;;;6161957;23;19943;-95
2020/12/24 00:25:44;;;;;;;23.77;3.17;;;9.20;99.90;;;;;;6161667;23;20108;-95
2020/12/24 00:28:13;;;;;;;16.08;2.90;;;9.20;99.90;;;;;;6162601;23;20019;-94
2020/12/24 00:30:45;;;;;;;20.75;3.10;;;9.20;99.90;;;;;;6163196;23;20021;-95
2020/12/24 00:33:15;;;;;;;14.15;2.90;;;9.20;99.90;;;;;;6162117;23;20041;-94
2020/12/24 00:35:44;;;;;;;21.50;3.05;;;9.20;99.90;;;;;;6160584;23;20023;-95
2020/12/24 00:38:14;;;;;;;18.60;2.97;;;9.20;99.90;;;;;;6162039;23;20033;-95
2020/12/24 00:40:41;;;;;;;14.07;2.47;;;9.10;99.90;;;;;;6161786;23;20021;-94
2020/12/24 00:43:09;;;;;;;23.70;2.90;;;9.10;99.90;;;;;;6161505;23;20083;-94
2020/12/24 00:45:38;;;;;;;23.30;3.33;;;9.10;99.90;;;;;;6163283;23;20032;-95
2020/12/24 00:48:07;;;;;;;18.25;2.97;;;9.10;99.90;;;;;;6163214;23;20088;-95
2020/12/24 00:50:35;;;;;;;16.30;3.27;;;9.00;99.90;;;;;;6162753;23;20402;-95
2020/12/24 00:53:03;;;;;;;12.90;2.47;;;9.00;99.90;;;;;;6163576;23;20295;-95
2020/12/24 00:55:32;;;;;;;16.63;3.70;;;9.00;99.90;;;;;;6163743;23;20013;-94
2020/12/24 00:57:59;;;;;;;;;;;9.00;99.90;;;;;;6164090;23;20036;-94
2020/12/24 01:00:28;;;;;;;18.13;2.87;;;8.90;99.90;;;;;;6163362;23;19923;-96
2020/12/24 01:02:57;;;;;;;15.27;2.55;;;8.90;99.90;;;;;;6163417;23;20263;-95
2020/12/24 01:05:25;;;;;;;17.80;3.40;;;8.90;99.90;;;;;;6163868;23;20060;-95
2020/12/24 01:07:53;;;;;;;15.93;2.58;;;8.90;99.90;;;;;;6163702;23;20060;-94
2020/12/24 01:10:22;;;;;;;15.65;2.78;;;8.80;99.90;;;;;;6163840;23;20081;-94
2020/12/24 01:12:53;;;;;;;17.90;2.88;;;8.80;99.90;;;;;;6164087;23;20091;-94
2020/12/24 01:15:21;;;;;;;17.88;3.05;;;8.70;99.90;;;;;;6164138;23;20079;-94
2020/12/24 01:17:56;;;;;;;15.27;2.95;;;8.60;99.90;;;;;;6164099;23;20017;-96
2020/12/24 01:20:32;;;;;;;16.60;2.75;;;8.50;99.90;;;;;;6164103;23;20048;-96
2020/12/24 01:23:00;;;;;;;12.15;2.20;;;8.50;99.90;;;;;;6188538;23;20377;-95
2020/12/24 01:25:30;;;;;;;14.27;2.20;;;8.50;99.90;;;;;;6163715;23;20385;-95
2020/12/24 01:28:00;;;;;;;13.43;2.35;;;8.40;99.90;;;;;;6163567;23;20021;-94
2020/12/24 01:30:27;;;;;;;18.52;2.78;;;8.40;99.90;;;;;;6163527;23;20088;-96
2020/12/24 01:32:56;;;;;;;18.20;3.10;;;8.40;99.90;;;;;;6163544;23;20044;-95
2020/12/24 01:35:28;;;;;;;17.52;3.40;;;8.40;99.90;;;;;;6162489;23;20064;-96
2020/12/24 01:37:57;;;;;;;15.02;3.00;;;8.40;99.90;;;;;;6163281;23;20027;-96
2020/12/24 01:40:37;;;;;;;17.08;2.88;;;8.40;99.90;;;;;;6165729;23;20323;-96
2020/12/24 01:43:07;;;;;;;20.13;3.03;;;8.40;99.90;;;;;;6164041;23;20036;-95
2020/12/24 01:45:37;;;;;;;18.90;2.70;;;8.50;99.90;;;;;;6163415;23;20021;-95
2020/12/24 01:48:07;;;;;;;14.25;2.13;;;8.50;99.90;;;;;;6163843;23;20044;-96
2020/12/24 01:50:37;;;;;;;16.90;2.80;;;8.50;99.90;;;;;;6163531;23;20024;-96
2020/12/24 01:53:05;;;;;;;15.18;2.25;;;8.50;99.90;;;;;;6162846;23;20021;-95
2020/12/24 01:55:34;;;;;;;15.63;2.10;;;8.50;99.90;;;;;;6163423;23;20429;-95
2020/12/24 01:58:03;;;;;;;15.93;2.25;;;8.50;99.90;;;;;;6163530;23;20068;-95
2020/12/24 02:00:37;;;;;;;13.85;2.63;;;8.50;99.90;;;;;;6164494;23;20075;-96
2020/12/24 02:03:10;;;;;;;8.85;1.63;;;8.50;99.90;;;;;;6164336;23;20013;-96
2020/12/24 02:05:47;;;;;;;10.35;1.30;;;8.50;99.90;;;;;;6164448;23;20021;-95
2020/12/24 02:08:16;;;;;;;13.82;2.17;;;8.50;99.90;;;;;;6162964;23;20025;-96
2020/12/24 02:10:45;;;;;;;11.48;2.10;;;8.50;99.90;;;;;;6162928;23;20044;-95
2020/12/24 02:13:13;;;;;;;12.32;1.70;;;8.50;99.90;;;;;;6163332;23;20096;-96
2020/12/24 02:15:41;;;;;;;11.05;1.52;;;8.50;99.90;;;;;;6163391;23;20036;-95
2020/12/24 02:18:13;;;;;;;7.95;1.48;;;8.40;99.90;;;;;;6163244;23;20068;-95
2020/12/24 02:20:45;;;;;;;9.18;2.00;;;8.50;99.90;;;;;;6163025;23;20017;-95
2020/12/24 02:23:15;;;;;;;8.27;2.17;;;8.40;99.90;;;;;;6163368;23;20021;-95
2020/12/24 02:25:44;;;;;;;7.03;1.42;;;8.40;99.90;;;;;;6162983;23;20025;-95
2020/12/24 02:28:13;;;;;;;9.82;1.88;;;8.40;99.90;;;;;;6163262;23;20429;-95
2020/12/24 02:30:42;;;;;;;;;;;8.40;99.90;;;;;;6163610;23;20025;-95
2020/12/24 02:33:10;;;;;;;13.95;1.60;;;8.40;99.90;;;;;;6162689;23;19916;-96
2020/12/24 02:35:38;;;;;;;8.15;1.52;;;8.40;99.90;;;;;;6161967;23;20021;-96
2020/12/24 02:38:09;;;;;;;12.15;1.88;;;8.40;99.90;;;;;;6163172;23;20013;-95
2020/12/24 02:40:39;;;;;;;6.53;1.90;;;8.40;99.90;;;;;;6163034;23;20025;-95
2020/12/24 02:43:07;;;;;;;14.80;1.60;;;8.40;99.90;;;;;;6163069;23;20433;-95
2020/12/24 02:45:35;;;;;;;8.60;1.87;;;8.40;99.90;;;;;;6162514;23;20017;-95
2020/12/24 02:48:05;;;;;;;9.23;1.70;;;8.30;99.90;;;;;;6162914;23;20268;-95
2020/12/24 02:50:33;;;;;;;6.70;1.30;;;8.30;99.90;;;;;;6162314;23;20401;-94
2020/12/24 02:53:01;;;;;;;9.50;2.03;;;8.30;99.90;;;;;;6162045;23;20017;-96
2020/12/24 02:55:30;;;;;;;7.20;1.55;;;8.30;99.90;;;;;;6162863;23;20017;-95
2020/12/24 02:57:58;;;;;;;7.30;1.30;;;8.30;99.90;;;;;;6162890;23;20020;-95
2020/12/24 03:00:28;;;;;;;7.90;1.48;;;8.30;99.90;;;;;;6163520;23;20048;-95
2020/12/24 03:02:56;;;;;;;13.33;2.00;;;8.30;99.90;;;;;;6163044;23;20013;-95
2020/12/24 03:05:26;;;;;;;9.73;2.27;;;8.30;99.90;;;;;;6163229;23;20316;-95
2020/12/24 03:07:56;;;;;;;10.55;1.60;;;8.20;99.90;;;;;;6162269;23;20092;-95
2020/12/24 03:10:24;;;;;;;9.85;2.22;;;8.20;99.90;;;;;;6163020;23;20444;-94
2020/12/24 03:12:53;;;;;;;7.45;1.52;;;8.20;99.90;;;;;;6162891;23;20017;-96
2020/12/24 03:15:22;;;;;;;13.63;1.50;;;8.20;99.90;;;;;;6161081;23;20032;-95
2020/12/24 03:17:51;;;;;;;10.95;1.35;;;8.20;99.90;;;;;;6161622;23;20016;-95
2020/12/24 03:20:18;;;;;;;5.13;1.30;;;8.20;99.90;;;;;;6162336;23;20017;-96
2020/12/24 03:22:48;;;;;;;;;;;8.10;99.90;;;;;;6163443;23;20047;-95
2020/12/24 03:25:17;;;;;;;7.30;1.60;;;8.00;99.90;;;;;;6162680;23;19923;-95
2020/12/24 03:27:45;;;;;;;10.32;1.30;;;8.00;99.90;;;;;;6162251;23;20433;-95
2020/12/24 03:30:13;;;;;;;10.10;1.35;;;8.00;99.90;;;;;;6161846;23;20016;-95
2020/12/24 03:32:42;;;;;;;9.68;1.70;;;8.00;99.90;;;;;;6162245;23;20392;-95
2020/12/24 03:35:11;;;;;;;6.40;1.35;;;7.90;99.90;;;;;;6161268;23;20017;-94
2020/12/24 03:37:40;;;;;;;8.90;1.27;;;7.90;99.90;;;;;;6162960;23;20013;-95
2020/12/24 03:40:12;;;;;;;8.55;1.38;;;7.80;99.90;;;;;;6162390;23;20041;-95
2020/12/24 03:42:42;;;;;;;8.05;1.20;;;7.80;99.90;;;;;;6163363;23;20018;-95
2020/12/24 03:45:11;;;;;;;5.65;1.08;;;7.80;99.90;;;;;;6162740;23;20055;-95
2020/12/24 03:47:40;;;;;;;8.93;1.10;;;7.80;99.90;;;;;;6162302;23;20044;-95
2020/12/24 03:50:09;;;;;;;10.38;1.33;;;7.70;99.90;;;;;;6163046;23;20013;-95
2020/12/24 03:52:37;;;;;;;8.40;1.10;;;7.70;99.90;;;;;;6162695;23;20045;-96
2020/12/24 03:55:06;;;;;;;6.60;1.52;;;7.70;99.90;;;;;;6162277;23;20020;-95
2020/12/24 03:57:35;;;;;;;8.35;1.45;;;7.70;99.90;;;;;;6162557;23;20437;-95
2020/12/24 04:00:05;;;;;;;4.72;0.70;;;7.70;99.90;;;;;;6162225;23;20017;-95
2020/12/24 04:02:37;;;;;;;6.75;1.17;;;7.70;99.90;;;;;;6163324;23;20021;-95
2020/12/24 04:05:06;;;;;;;6.28;0.98;;;7.70;99.90;;;;;;6162416;23;20066;-95
2020/12/24 04:07:34;;;;;;;3.90;0.90;;;7.80;99.90;;;;;;6162689;23;20040;-95
2020/12/24 04:10:02;;;;;;;7.78;1.50;;;7.80;99.90;;;;;;6162514;23;20382;-95
2020/12/24 04:12:30;;;;;;;7.00;1.08;;;7.80;99.90;;;;;;6161544;23;20040;-95
2020/12/24 04:15:00;;;;;;;9.60;1.25;;;7.80;99.90;;;;;;6162642;23;20021;-95
2020/12/24 04:17:27;;;;;;;6.70;1.10;;;7.80;99.90;;;;;;6161881;23;20013;-96
2020/12/24 04:19:56;;;;;;;4.13;1.13;;;7.80;99.90;;;;;;6162854;23;20017;-95
2020/12/24 04:22:25;;;;;;;5.75;1.10;;;7.80;99.90;;;;;;6164451;23;20013;-95
2020/12/24 04:24:54;;;;;;;6.82;1.27;;;7.70;99.90;;;;;;6164639;23;20025;-95
2020/12/24 04:27:25;;;;;;;6.07;0.98;;;7.70;99.90;;;;;;6164212;23;20021;-95
2020/12/24 04:29:59;;;;;;;5.25;1.13;;;7.70;99.90;;;;;;6164364;23;20039;-95
2020/12/24 04:32:28;;;;;;;8.05;1.58;;;7.60;99.90;;;;;;6164009;23;20076;-95
2020/12/24 04:34:57;;;;;;;4.93;0.95;;;7.60;99.90;;;;;;6163618;23;20079;-95
2020/12/24 04:37:25;;;;;;;5.35;1.05;;;7.60;99.90;;;;;;6164032;23;20028;-95
2020/12/24 04:39:55;;;;;;;7.22;1.20;;;7.60;99.90;;;;;;6164664;23;20275;-95
2020/12/24 04:42:24;;;;;;;5.05;1.52;;;7.60;99.90;;;;;;6164076;23;20013;-95
2020/12/24 04:44:53;;;;;;;9.93;1.35;;;7.60;99.90;;;;;;6164204;23;20021;-95
2020/12/24 04:47:21;;;;;;;7.65;1.17;;;7.60;99.90;;;;;;6163994;23;20025;-95
2020/12/24 04:49:50;;;;;;;6.68;1.05;;;7.70;99.90;;;;;;6164003;23;20532;-96
2020/12/24 04:52:18;;;;;;;8.90;1.20;;;7.70;99.90;;;;;;6163578;23;20013;-96
2020/12/24 04:54:52;;;;;;;11.90;1.90;;;7.60;99.90;;;;;;6164585;23;20021;-95
2020/12/24 04:57:23;;;;;;;4.30;0.80;;;7.60;99.90;;;;;;6163610;23;20044;-95
2020/12/24 04:59:54;;;;;;;4.95;1.65;;;7.60;99.90;;;;;;6163462;23;20021;-95
2020/12/24 05:02:24;;;;;;;6.03;0.90;;;7.70;99.90;;;;;;6165148;23;20410;-95
2020/12/24 05:04:55;;;;;;;7.43;1.30;;;7.70;99.90;;;;;;6166122;23;20021;-96
2020/12/24 05:07:23;;;;;;;5.30;1.35;;;7.70;99.90;;;;;;6165033;23;20260;-95
2020/12/24 05:09:55;;;;;;;6.60;1.02;;;7.70;99.90;;;;;;6165694;23;20380;-95
2020/12/24 05:12:31;;;;;;;5.45;1.15;;;7.70;99.90;;;;;;6165359;23;20092;-95
2020/12/24 05:15:00;;;;;;;7.40;1.65;;;7.70;99.90;;;;;;6164014;23;20075;-95
2020/12/24 05:17:29;;;;;;;5.03;1.20;;;7.70;99.90;;;;;;6164119;23;20373;-95
2020/12/24 05:20:04;;;;;;;6.15;1.60;;;7.70;99.90;;;;;;6164017;23;20306;-95
2020/12/24 05:22:33;;;;;;;7.45;1.30;;;7.70;99.90;;;;;;6164347;23;20021;-95
2020/12/24 05:25:18;;;;;;;4.60;1.23;;;7.70;99.90;;;;;;6164723;23;20469;-95
2020/12/24 05:27:56;;;;;;;9.43;1.50;;;7.70;99.90;;;;;;6164944;23;20367;-95
2020/12/24 05:30:28;;;;;;;6.07;1.40;;;7.70;99.90;;;;;;6163543;23;20365;-95
2020/12/24 05:33:00;;;;;;;6.22;1.40;;;7.70;99.90;;;;;;6164327;23;20020;-95
2020/12/24 05:35:30;;;;;;;6.22;1.52;;;7.70;99.90;;;;;;6162546;23;20313;-94
2020/12/24 05:37:58;;;;;;;7.60;1.30;;;7.70;99.90;;;;;;6163503;23;20024;-96
2020/12/24 05:40:28;;;;;;;6.55;1.83;;;7.60;99.90;;;;;;6162928;23;20021;-94
2020/12/24 05:43:01;;;;;;;7.90;1.40;;;7.60;99.90;;;;;;6164362;23;20079;-95
2020/12/24 05:45:32;;;;;;;7.85;1.30;;;7.60;99.90;;;;;;6164283;23;20040;-95
2020/12/24 05:48:14;;;;;;;7.97;1.30;;;7.60;99.90;;;;;;6163558;23;20020;-94
2020/12/24 05:50:44;;;;;;;5.07;1.02;;;7.70;99.90;;;;;;6165231;23;20024;-95
2020/12/24 05:53:23;;;;;;;7.40;1.27;;;7.70;99.90;;;;;;6166040;23;20017;-94
2020/12/24 05:55:53;;;;;;;7.78;1.27;;;7.60;99.90;;;;;;6190513;23;20021;-94
2020/12/24 05:58:23;;;;;;;;;;;7.70;99.90;;;;;;6166155;23;20017;-95
2020/12/24 06:00:59;;;;;;;11.00;2.08;;;7.60;99.90;;;;;;6169082;23;19916;-94
2020/12/24 06:03:38;;;;;;;14.68;2.20;;;7.60;99.90;;;;;;6172667;23;20021;-95
2020/12/24 06:06:18;;;;;;;7.32;1.50;;;7.60;99.90;;;;;;6164986;23;20195;-94
2020/12/24 06:08:47;;;;;;;4.93;1.45;;;7.60;99.90;;;;;;6164240;23;20017;-95
2020/12/24 06:11:27;;;;;;;10.00;1.40;;;7.60;99.90;;;;;;6164893;23;20021;-95
2020/12/24 06:13:58;;;;;;;6.10;1.45;;;7.70;99.90;;;;;;6164958;23;20076;-94
2020/12/24 06:16:29;;;;;;;8.93;1.58;;;7.70;99.90;;;;;;6164801;23;20092;-95
2020/12/24 06:19:00;;;;;;;7.25;1.48;;;7.70;99.90;;;;;;6165458;23;20324;-95
2020/12/24 06:21:32;;;;;;;5.85;1.52;;;7.70;99.90;;;;;;6164358;23;20021;-95
2020/12/24 06:24:02;;;;;;;7.20;1.55;;;7.70;99.90;;;;;;6163313;23;20087;-94
2020/12/24 06:26:46;;;;;;;7.20;1.35;;;7.70;99.90;;;;;;6159759;23;20430;-94
2020/12/24 06:29:18;;;;;;;4.25;1.40;;;7.70;99.90;;;;;;6165112;23;20020;-94
2020/12/24 06:31:49;;;;;;;8.43;1.35;;;7.70;99.90;;;;;;6164753;23;20021;-95
2020/12/24 06:34:40;;;;;;;6.57;1.10;;;7.70;99.90;;;;;;6165200;23;20028;-93
2020/12/24 06:37:20;;;;;;;9.65;1.50;;;7.70;99.90;;;;;;6164236;23;20029;-94
2020/12/24 06:39:52;;;;;;;5.82;1.02;;;7.70;99.90;;;;;;6163889;23;20028;-94
2020/12/24 06:42:40;;;;;;;8.10;1.88;;;7.70;99.90;;;;;;6162981;23;20096;-95
2020/12/24 06:45:09;;;;;;;3.75;1.35;;;7.80;99.90;;;;;;6163264;23;20021;-94
2020/12/24 06:47:40;;;;;;;9.15;1.25;;;7.80;99.90;;;;;;6163634;23;20017;-94
2020/12/24 06:50:48;;;;;;;8.23;1.83;;;7.80;99.90;;;;;;6188117;23;20021;-95
2020/12/24 06:53:33;;;;;;;12.55;1.70;;;7.70;99.90;;;;;;6074119;23;20025;-95
2020/12/24 06:56:18;;;;;;;6.47;1.30;;;7.70;99.90;;;;;;6074187;23;20028;-94
2020/12/24 06:58:51;;;;;;;6.35;1.35;;;7.70;99.90;;;;;;6074389;23;20025;-95
2020/12/24 07:01:24;;;;;;;9.15;2.13;;;7.70;99.90;;;;;;6073574;23;20058;-94
2020/12/24 07:04:00;;;;;;;5.38;1.73;;;7.70;99.90;;;;;;6098112;23;20025;-95
2020/12/24 07:06:40;;;;;;;7.82;1.25;;;7.70;99.90;;;;;;6073788;23;20069;-94
2020/12/24 07:09:32;;;;;;;8.18;1.50;;;7.70;99.90;;;;;;6097107;23;20018;-94
2020/12/24 07:12:05;;;;;;;6.95;1.20;;;7.70;99.90;;;;;;6074466;23;20018;-93
2020/12/24 07:14:33;;;;;;;8.15;1.40;;;7.70;99.90;;;;;;6075995;23;20019;-92
2020/12/24 07:17:17;;;;;;;7.88;1.45;;;7.70;99.90;;;;;;6101911;23;20018;-94
2020/12/24 07:19:49;;;;;;;7.22;1.50;;;7.80;99.90;;;;;;6077152;23;20089;-94
2020/12/24 07:22:21;;;;;;;6.75;1.30;;;7.80;99.90;;;;;;6076591;23;20018;-93
2020/12/24 07:25:02;;;;;;;7.50;1.50;;;7.80;99.90;;;;;;6075372;23;20121;-94
2020/12/24 07:27:30;;;;;;;6.95;1.30;;;7.80;99.90;;;;;;6125194;23;20080;-94
2020/12/24 07:29:59;;;;;;;7.97;2.35;;;7.80;99.90;;;;;;6164081;23;20021;-94
2020/12/24 07:32:39;;;;;;;7.03;1.30;;;7.80;99.90;;;;;;6164116;23;20085;-94
2020/12/24 07:35:34;;;;;;;7.75;1.70;;;7.80;99.90;;;;;;6165568;23;20067;-96
2020/12/24 07:38:04;;;;;;;6.38;1.20;;;7.80;99.90;;;;;;6164362;23;20021;-93
2020/12/24 07:40:33;;;;;;;7.68;1.42;;;7.80;99.90;;;;;;6166045;23;20036;-94
2020/12/24 07:43:09;;;;;;;7.88;1.90;;;7.80;99.90;;;;;;6163915;23;20020;-92
2020/12/24 07:45:37;;;;;;;6.70;1.50;;;7.80;99.90;;;;;;6162682;23;20032;-93
2020/12/24 07:48:18;;;;;;;10.13;1.50;;;7.80;99.90;;;;;;6160924;23;20025;-93
2020/12/24 07:50:51;;;;;;;5.55;1.25;;;7.80;99.90;;;;;;6159435;23;20029;-93
2020/12/24 07:53:23;;;;;;;12.00;1.70;;;7.80;99.90;;;;;;6160112;23;20037;-93
2020/12/24 07:55:50;;;;;;;11.90;1.85;;;7.80;99.90;;;;;;6162670;23;20040;-93
2020/12/24 07:58:19;;;;;;;7.97;1.52;;;7.80;99.90;;;;;;6187284;23;20515;-93
2020/12/24 08:00:52;;;;;;;9.52;1.30;;;7.80;99.90;;;;;;6163592;23;20359;-93
2020/12/24 08:03:20;;;;;;;7.18;1.20;;;7.80;99.90;;;;;;6161950;23;20017;-93
2020/12/24 08:05:49;;;;;;;9.18;1.48;;;7.80;99.90;;;;;;6162742;23;20096;-93
2020/12/24 08:08:24;;;;;;;5.90;1.40;;;7.80;99.90;;;;;;6162912;23;20014;-92
2020/12/24 08:10:52;;;;;;;6.82;1.45;;;7.80;99.90;;;;;;6163064;23;20024;-93
2020/12/24 08:13:22;;;;;;;7.43;1.52;;;7.80;99.90;;;;;;6163606;23;20021;-93
2020/12/24 08:15:52;;;;;;;7.82;1.70;;;7.80;99.90;;;;;;6163549;23;20068;-93
2020/12/24 08:18:27;;;;;;;6.40;1.10;;;7.80;99.90;;;;;;6161000;23;20033;-93
2020/12/24 08:21:10;;;;;;;8.77;1.33;;;7.80;99.90;;;;;;6161874;23;20028;-92
2020/12/24 08:23:37;;;;;;;5.63;1.30;;;7.80;99.90;;;;;;6162042;23;20013;-93
2020/12/24 08:26:07;;;;;;;8.65;1.25;;;7.80;99.90;;;;;;6161319;23;20029;-92
2020/12/24 08:28:39;;;;;;;8.88;1.20;;;7.80;99.90;;;;;;6161421;23;20017;-93
2020/12/24 08:31:10;;;;;;;8.00;1.08;;;7.80;99.90;;;;;;6185279;23;20524;-93
2020/12/24 08:33:40;;;;;;;5.53;1.20;;;7.80;99.90;;;;;;6161663;23;20528;-92
2020/12/24 08:36:14;;;;;;;8.25;1.38;;;7.80;99.90;;;;;;6162998;23;20496;-92
2020/12/24 08:38:42;;;;;;;6.00;1.23;;;7.80;99.90;;;;;;6162757;23;20017;-93
2020/12/24 08:41:24;;;;;;;5.15;0.93;;;7.80;99.90;;;;;;6162606;23;20430;-92
2020/12/24 08:43:54;;;;;;;6.82;1.00;;;7.80;99.90;;;;;;6162565;23;20025;-92
2020/12/24 08:46:23;;;;;;;4.35;1.00;;;7.80;99.90;;;;;;6162462;23;20024;-93
2020/12/24 08:48:53;;;;;;;6.30;1.20;;;7.80;99.90;;;;;;6162734;23;20095;-94
2020/12/24 08:51:21;;;;;;;7.78;1.08;;;7.80;99.90;;;;;;6162135;23;20020;-95
2020/12/24 08:54:06;;;;;;;3.83;0.88;;;7.80;99.90;;;;;;6162578;23;20024;-88
2020/12/24 08:56:47;;;;;;;3.35;0.90;;;7.80;99.90;;;;;;6162215;23;20021;-94
2020/12/24 08:59:16;;;;;;;7.40;1.10;;;7.80;99.90;;;;;;6161730;23;20045;-92
2020/12/24 09:01:45;;;;;;;5.30;1.02;;;7.80;99.90;;;;;;6161834;23;20040;-95
2020/12/24 09:04:20;;;;;;;3.28;1.10;;;7.80;99.90;;;;;;6162848;23;20566;-92
2020/12/24 09:06:47;;;;;;;5.50;1.23;;;7.80;99.90;;;;;;6162044;23;20017;-93
2020/12/24 09:09:24;;;;;;;10.27;1.10;;;7.70;99.90;;;;;;6163028;23;20580;-92
2020/12/24 09:11:54;;;;;;;3.28;0.90;;;7.80;99.90;;;;;;6161363;23;20052;-91
2020/12/24 09:14:28;;;;;;;5.78;0.80;;;7.80;99.90;;;;;;6185923;23;20092;-94
2020/12/24 09:17:04;;;;;;;3.50;0.70;;;7.80;99.90;;;;;;6164528;23;20104;-94
2020/12/24 09:19:34;;;;;;;5.55;0.80;;;7.70;99.90;;;;;;6161767;23;20021;-94
2020/12/24 09:22:03;;;;;;;5.00;1.00;;;7.80;99.90;;;;;;6160770;23;20017;-93
2020/12/24 09:24:34;;;;;;;4.93;1.15;;;7.80;99.90;;;;;;6161814;23;20033;-94
2020/12/24 09:27:06;;;;;;;7.18;0.82;;;7.90;99.90;;;;;;6164678;23;20020;-96
2020/12/24 09:29:49;;;;;;;5.07;0.90;;;7.90;99.90;;;;;;6151357;22;20029;-94
2020/12/24 09:32:19;;;;;;;7.72;0.98;;;8.00;99.90;;;;;;6133037;23;20025;-93
2020/12/24 09:34:46;;;;;;;;;;;8.00;99.90;;;;;;6131774;23;20093;-93
2020/12/24 09:37:23;;;;;;;8.07;0.90;;;8.10;99.90;;;;;;6135472;23;19923;-93
2020/12/24 09:39:52;;;;;;;5.72;0.93;;;8.10;99.90;;;;;;6141808;23;20029;-93
2020/12/24 09:42:20;;;;;;;3.60;0.65;;;8.20;99.90;;;;;;6133244;23;20022;-92
2020/12/24 09:45:03;;;;;;;2.58;0.60;;;8.20;99.90;;;;;;6134866;23;20064;-96
2020/12/24 09:47:32;;;;;;;3.17;1.10;;;8.20;99.90;;;;;;6135604;23;20025;-94
2020/12/24 09:50:01;;;;;;;4.90;0.80;;;8.30;99.90;;;;;;6134626;23;20024;-94
2020/12/24 09:52:29;;;;;;;3.70;0.90;;;8.40;99.90;;;;;;6135270;23;20017;-93
2020/12/24 09:54:57;;;;;;;5.32;0.90;;;8.40;99.90;;;;;;6134605;23;20069;-93
2020/12/24 09:57:24;;;;;;;4.22;0.73;;;8.40;99.90;;;;;;6135269;23;20017;-95
2020/12/24 09:59:54;;;;;;;4.38;1.02;;;8.40;99.90;;;;;;6135379;23;20024;-94
2020/12/24 10:02:23;;;;;;;6.43;0.90;;;8.50;99.90;;;;;;6135102;23;20052;-94
2020/12/24 10:04:51;;;;;;;;;;;8.50;99.90;;;;;;6135204;23;20025;-94
2020/12/24 10:11:44;;;;;;;10.55;1.30;;;8.50;99.90;;;;;;6165376;23;20028;-96
2020/12/24 10:14:53;;;;;;;6.68;1.30;;;8.50;99.90;;;;;;5944118;24;20021;-96
2020/12/24 10:17:24;;;;;;;8.82;1.13;;;8.50;99.90;;;;;;5955878;24;20030;-93
2020/12/24 10:19:53;;;;;;;6.88;1.40;;;8.50;99.90;;;;;;5933213;24;20024;-94
2020/12/24 10:22:22;;;;;;;5.78;0.85;;;8.60;99.90;;;;;;5934624;24;20045;-96
2020/12/24 10:24:53;;;;;;;5.60;1.00;;;8.60;99.90;;;;;;5934092;24;20025;-95
2020/12/24 10:27:23;;;;;;;5.85;1.15;;;8.60;99.90;;;;;;5956478;24;20024;-94
2020/12/24 10:29:52;;;;;;;6.55;1.45;;;8.60;99.90;;;;;;5933261;24;20142;-95
2020/12/24 10:32:24;;;;;;;6.10;0.88;;;8.60;99.90;;;;;;5934177;24;20036;-95
2020/12/24 10:34:51;;;;;;;5.78;1.25;;;8.60;99.90;;;;;;5932456;24;20028;-93
2020/12/24 10:37:20;;;;;;;7.10;1.10;;;8.70;99.90;;;;;;5933381;24;20044;-93
2020/12/24 10:39:47;;;;;;;7.43;1.00;;;8.70;99.90;;;;;;5932358;24;20153;-88
2020/12/24 10:42:21;;;;;;;6.53;1.05;;;8.70;99.90;;;;;;5932898;24;20441;-89
2020/12/24 10:44:48;;;;;;;9.13;1.85;;;8.80;99.90;;;;;;5958911;23;20023;-86
2020/12/24 10:47:15;;;;;;;9.38;1.33;;;8.90;99.90;;;;;;6042800;23;20436;-85
2020/12/24 10:49:45;;;;;;;8.85;1.42;;;8.90;99.90;;;;;;6084066;23;20444;-85
2020/12/24 10:52:13;;;;;;;8.32;1.20;;;9.00;99.90;;;;;;6131741;23;20013;-90
2020/12/24 10:54:41;;;;;;;7.07;1.03;;;8.90;99.90;;;;;;6131628;23;20026;-86
2020/12/24 10:57:10;;;;;;;10.60;1.75;;;8.90;99.90;;;;;;6131877;23;20268;-87
2020/12/24 10:59:41;;;;;;;10.32;1.52;;;8.90;99.90;;;;;;6131779;23;20048;-86
2020/12/24 11:02:10;;;;;;;7.47;1.17;;;8.90;99.90;;;;;;6130492;23;20367;-88
2020/12/24 11:04:38;;;;;;;7.13;1.52;;;8.90;99.90;;;;;;6131648;23;20025;-87
2020/12/24 11:07:09;;;;;;;9.30;1.30;;;8.80;99.90;;;;;;6132761;23;20342;-87
2020/12/24 11:09:38;;;;;;;6.32;1.38;;;8.90;99.90;;;;;;6131996;23;20021;-86
2020/12/24 11:12:09;;;;;;;15.27;1.50;;;8.80;99.90;;;;;;6131875;23;20016;-85
2020/12/24 11:14:37;;;;;;;10.60;1.63;;;8.80;99.90;;;;;;6131461;23;20028;-86
2020/12/24 11:17:05;;;;;;;8.20;1.38;;;8.80;99.90;;;;;;6133086;23;20018;-84
2020/12/24 11:19:35;;;;;;;8.18;1.40;;;8.90;99.90;;;;;;6133227;23;20092;-88
2020/12/24 11:22:07;;;;;;;6.00;1.13;;;8.90;99.90;;;;;;6133222;23;20028;-88
2020/12/24 11:24:38;;;;;;;7.20;1.50;;;8.90;99.90;;;;;;6135226;23;20637;-88
2020/12/24 11:27:08;;;;;;;9.85;1.75;;;8.90;99.90;;;;;;6133288;23;20021;-87
2020/12/24 11:30:08;;;;;;;8.27;1.90;;;8.90;99.90;;;;;;6135613;23;20041;-96
2020/12/24 11:32:45;;;;;;;;;;;8.90;99.90;;;;;;6166801;23;20092;-88
2020/12/24 11:35:24;;;;;;;7.97;1.20;;;8.90;99.90;;;;;;6164291;23;20268;-94
2020/12/24 11:38:04;;;;;;;10.82;1.25;;;8.90;99.90;;;;;;6164287;23;20041;-91
2020/12/24 11:40:44;;;;;;;6.45;1.10;;;8.90;99.90;;;;;;6170252;23;20021;-91
2020/12/24 11:43:27;;;;;;;10.07;1.35;;;8.90;99.90;;;;;;6164813;23;20017;-92
2020/12/24 11:46:27;;;;;;;9.57;1.42;;;8.90;99.90;;;;;;6168231;23;20020;-92
2020/12/24 11:49:14;;;;;;;8.65;1.33;;;8.90;99.90;;;;;;6164284;23;20025;-92
2020/12/24 11:52:00;;;;;;;8.40;1.40;;;8.90;99.90;;;;;;6162701;23;20033;-92
2020/12/24 11:54:48;;;;;;;7.25;1.50;;;8.90;99.90;;;;;;6163885;23;20021;-88
2020/12/24 11:57:21;;;;;;;8.52;1.60;;;8.80;99.90;;;;;;6160570;23;20441;-95
2020/12/24 11:59:53;;;;;;;10.32;1.50;;;8.90;99.90;;;;;;6163164;23;20017;-85
2020/12/24 12:10:43;;;;;;;8.82;1.20;;;8.90;99.90;;;;;;6146573;23;20052;-95
2020/12/24 12:13:16;;;;;;;7.53;1.23;;;8.80;99.90;;;;;;6141867;23;20093;-94
2020/12/24 12:16:11;;;;;;;7.40;1.33;;;8.80;99.90;;;;;;6139493;23;20018;-96
2020/12/24 12:23:09;;;;;;;8.98;1.70;;;8.90;99.90;;;;;;6065822;23;20173;-96
2020/12/24 12:26:47;;;;;;;9.73;1.45;;;8.90;99.90;;;;;;6044402;23;20034;-96
2020/12/24 12:29:19;;;;;;;10.15;2.05;;;8.90;99.90;;;;;;6075500;23;20376;-90
2020/12/24 12:58:52;;;;;;;8.35;2.03;;;8.70;99.90;;;;;;6135722;23;20460;-92
2020/12/24 13:01:20;;;;;;;6.13;1.20;;;8.60;99.90;;;;;;6135482;23;20145;-90
2020/12/24 13:04:07;;;;;;;8.82;1.40;;;8.60;99.90;;;;;;6139250;23;20018;-89
2020/12/24 13:06:39;;;;;;;10.60;1.53;;;8.70;99.90;;;;;;6133462;23;20024;-90
2020/12/24 13:09:08;;;;;;;7.22;1.30;;;8.70;99.90;;;;;;6133075;23;20490;-89
2020/12/24 13:11:35;;;;;;;6.82;1.10;;;8.70;99.90;;;;;;6133564;23;20092;-88
2020/12/24 13:14:05;;;;;;;5.68;0.82;;;8.70;99.90;;;;;;6134600;23;20154;-94
2020/12/24 13:16:57;;;;;;;10.43;1.45;;;8.70;99.90;;;;;;6133563;23;20014;-96
2020/12/24 13:19:37;;;;;;;8.27;1.40;;;8.60;99.90;;;;;;6135683;23;20363;-96
2020/12/24 13:22:11;;;;;;;7.20;1.35;;;8.70;99.90;;;;;;6135680;23;20018;-93
2020/12/24 13:24:55;;;;;;;5.03;1.38;;;8.60;99.90;;;;;;6135594;23;20017;-95
2020/12/24 13:27:43;;;;;;;7.07;1.48;;;8.60;99.90;;;;;;6138649;23;20026;-96
2020/12/24 13:30:28;;;;;;;7.35;1.25;;;8.60;99.90;;;;;;6137819;23;20028;-93
2020/12/24 13:33:27;;;;;;;9.70;1.58;;;8.60;99.90;;;;;;6141003;23;20365;-93
2020/12/24 13:35:56;;;;;;;6.30;1.35;;;8.60;99.90;;;;;;6133872;23;20023;-94
2020/12/24 13:38:28;;;;;;;13.85;2.50;;;8.60;99.90;;;;;;6135822;23;20017;-90
2020/12/24 13:40:58;;;;;;;7.72;2.20;;;8.60;99.90;;;;;;6134010;23;20025;-91
2020/12/24 13:43:27;;;;;;;6.72;1.70;;;8.70;99.90;;;;;;6138135;23;20024;-91
2020/12/24 13:45:56;;;;;;;5.88;1.20;;;8.60;99.90;;;;;;6135355;23;20049;-88
2020/12/24 13:48:25;;;;;;;9.10;1.40;;;8.60;99.90;;;;;;6134789;23;20021;-88
2020/12/24 13:50:52;;;;;;;11.18;1.40;;;8.70;99.90;;;;;;6135680;23;20077;-87
2020/12/24 13:53:21;;;;;;;6.90;1.40;;;8.70;99.90;;;;;;6134495;23;20017;-89
2020/12/24 13:55:50;;;;;;;8.55;1.98;;;8.70;99.90;;;;;;6134889;23;20364;-89
2020/12/24 13:58:19;;;;;;;13.50;1.75;;;8.70;99.90;;;;;;6133150;23;20026;-88
2020/12/24 14:00:47;;;;;;;;;;;8.70;99.90;;;;;;6134330;23;20025;-86
2020/12/24 14:03:15;;;;;;;15.63;1.60;;;8.70;99.90;;;;;;6132395;23;19944;-91
2020/12/24 14:05:43;;;;;;;9.30;1.38;;;8.70;99.90;;;;;;6133030;23;20033;-86
2020/12/24 14:08:11;;;;;;;6.63;1.25;;;8.70;99.90;;;;;;6159540;23;20071;-84